| time (UTC) | temp F | wind direction | speed MPH | gust MPH | rain 1hr in | rain 24hr in | rain mn in | humidity % | barometer mb |
| 20260905150524 | 89 | 195 | 2.0 | 7.0 | 0.00 | 0.19 | 0.03 | 67 | 1013.4 |
| 20260905150052 | 88 | 254 | 2.0 | 6.0 | 0.00 | 0.19 | 0.03 | 70 | 1013.4 |
| 20260905145530 | 88 | 3 | 3.0 | 7.0 | 0.00 | 0.19 | 0.03 | 69 | 1015.5 |
| 20260905145526 | 88 | 0 | 1.0 | 7.0 | 0.00 | 0.19 | 0.03 | 69 | 1013.5 |
| 20260905145029 | 87 | 220 | 4.0 | 7.0 | 0.00 | 0.19 | 0.03 | 70 | 1013.6 |
| 20260905144549 | 87 | 175 | 3.0 | 9.0 | 0.00 | 0.19 | 0.03 | 71 | 1013.7 |
| 20260905144544 | 87 | 188 | 3.0 | 7.0 | 0.00 | 0.19 | 0.03 | 71 | 1015.7 |
| 20260905144027 | 86 | 227 | 5.0 | 9.0 | 0.00 | 0.19 | 0.03 | 72 | 1013.6 |
| 20260905143559 | 87 | 213 | 1.0 | 6.0 | 0.00 | 0.19 | 0.03 | 73 | 1015.6 |
| 20260905143524 | 86 | 186 | 2.0 | 7.0 | 0.00 | 0.19 | 0.03 | 73 | 1013.6 |
| 20260905143048 | 86 | 189 | 2.0 | 7.0 | 0.00 | 0.19 | 0.03 | 73 | 1013.6 |
| 20260905142602 | 86 | 191 | 2.0 | 6.0 | 0.00 | 0.19 | 0.03 | 74 | 1015.6 |
| 20260905142523 | 86 | 170 | 4.0 | 7.0 | 0.00 | 0.19 | 0.03 | 75 | 1013.6 |
| 20260905142023 | 85 | 159 | 2.0 | 7.0 | 0.00 | 0.19 | 0.03 | 76 | 1013.5 |
| 20260905141625 | 86 | 183 | 1.0 | 5.0 | 0.00 | 0.19 | 0.03 | 73 | 1015.5 |
| 20260905141543 | 85 | 195 | 2.0 | 6.0 | 0.00 | 0.19 | 0.03 | 73 | 1013.4 |
| 20260905141024 | 85 | 230 | 1.0 | 5.0 | 0.00 | 0.19 | 0.03 | 75 | 1013.5 |
| 20260905140550 | 85 | 241 | 1.0 | 3.0 | 0.00 | 0.19 | 0.03 | 77 | 1015.5 |
| 20260905140527 | 84 | 198 | 2.0 | 4.0 | 0.00 | 0.19 | 0.03 | 77 | 1013.4 |
| 20260905140050 | 84 | 193 | 2.0 | 4.0 | 0.00 | 0.19 | 0.03 | 78 | 1013.5 |
| 20260905135613 | 84 | 212 | 1.0 | 2.0 | 0.00 | 0.19 | 0.03 | 79 | 1015.5 |
| 20260905135526 | 83 | 185 | 1.0 | 4.0 | 0.00 | 0.19 | 0.03 | 79 | 1013.4 |
| 20260905135025 | 83 | 135 | 1.0 | 4.0 | 0.00 | 0.19 | 0.03 | 80 | 1013.4 |
| 20260905134549 | 82 | 0 | 2.0 | 4.0 | 0.00 | 0.19 | 0.03 | 80 | 1013.4 |
| 20260905134546 | 82 | 235 | 1.0 | 5.0 | 0.00 | 0.19 | 0.03 | 80 | 1015.5 |
| 20260905134026 | 81 | 183 | 1.0 | 4.0 | 0.00 | 0.19 | 0.03 | 82 | 1013.4 |
| 20260905133542 | 81 | 201 | 1.0 | 5.0 | 0.00 | 0.19 | 0.03 | 82 | 1015.5 |
| 20260905133523 | 81 | 201 | 1.0 | 6.0 | 0.00 | 0.19 | 0.03 | 82 | 1013.4 |
| 20260905133042 | 80 | 172 | 2.0 | 6.0 | 0.00 | 0.19 | 0.03 | 83 | 1013.4 |
| 20260905132529 | 80 | 176 | 2.0 | 6.0 | 0.00 | 0.19 | 0.03 | 85 | 1013.3 |
| 20260905132527 | 80 | 172 | 1.0 | 5.0 | 0.00 | 0.19 | 0.03 | 85 | 1015.3 |
| 20260905132025 | 79 | 178 | 1.0 | 6.0 | 0.00 | 0.19 | 0.03 | 86 | 1013.3 |
| 20260905131548 | 78 | 145 | 1.0 | 5.0 | 0.00 | 0.19 | 0.03 | 87 | 1013.4 |
| 20260905131534 | 79 | 156 | 1.0 | 4.0 | 0.00 | 0.19 | 0.03 | 87 | 1015.5 |
| 20260905131024 | 78 | 174 | 2.0 | 4.0 | 0.00 | 0.19 | 0.03 | 87 | 1013.4 |
| 20260905130528 | 78 | 167 | 1.0 | 5.0 | 0.00 | 0.19 | 0.03 | 87 | 1015.5 |
| 20260905130526 | 77 | 167 | 1.0 | 6.0 | 0.00 | 0.19 | 0.03 | 87 | 1013.5 |
| 20260905130046 | 76 | 192 | 2.0 | 6.0 | 0.00 | 0.19 | 0.03 | 88 | 1013.6 |
| 20260905125524 | 76 | 202 | 3.0 | 6.0 | 0.00 | 0.19 | 0.03 | 88 | 1013.5 |
| 20260905125509 | 76 | 184 | 2.0 | 5.0 | 0.00 | 0.19 | 0.03 | 88 | 1015.6 |
| 20260905125023 | 75 | 181 | 2.0 | 4.0 | 0.00 | 0.19 | 0.03 | 88 | 1013.6 |
| 20260905124556 | 75 | 266 | 2.0 | 6.0 | 0.00 | 0.19 | 0.03 | 88 | 1013.6 |
| 20260905124450 | 75 | 226 | 1.0 | 3.0 | 0.00 | 0.19 | 0.03 | 88 | 1015.6 |
| 20260905124025 | 74 | 208 | 2.0 | 6.0 | 0.00 | 0.19 | 0.03 | 88 | 1013.6 |
| 20260905123525 | 74 | 190 | 0.0 | 3.0 | 0.00 | 0.19 | 0.03 | 88 | 1013.7 |
| 20260905123513 | 74 | 187 | 1.0 | 2.0 | 0.00 | 0.19 | 0.03 | 88 | 1015.7 |
| 20260905123051 | 73 | 168 | 1.0 | 3.0 | 0.00 | 0.19 | 0.03 | 88 | 1013.7 |
| 20260905122525 | 72 | 163 | 1.0 | 4.0 | 0.00 | 0.19 | 0.03 | 88 | 1013.6 |
| 20260905122503 | 73 | 163 | 1.0 | 2.0 | 0.00 | 0.19 | 0.03 | 88 | 1015.7 |
| 20260905122025 | 72 | 183 | 0.0 | 4.0 | 0.00 | 0.19 | 0.03 | 88 | 1013.7 |
| 20260905121546 | 72 | 146 | 1.0 | 4.0 | 0.00 | 0.19 | 0.03 | 88 | 1013.7 |
| 20260905121434 | 72 | 159 | 0.0 | 1.0 | 0.00 | 0.19 | 0.03 | 89 | 1015.7 |
| 20260905121024 | 72 | 0 | 1.0 | 2.0 | 0.00 | 0.19 | 0.03 | 89 | 1013.6 |
| 20260905120525 | 71 | 190 | 0.0 | 2.0 | 0.00 | 0.19 | 0.03 | 88 | 1013.6 |
| 20260905120042 | 71 | 0 | 0.0 | 1.0 | 0.00 | 0.19 | 0.03 | 89 | 1013.6 |
| 20260905115525 | 71 | 0 | 0.0 | 1.0 | 0.00 | 0.19 | 0.03 | 88 | 1013.5 |
| 20260905115236 | 71 | 190 | 0.0 | 0.0 | 0.00 | 0.19 | 0.03 | 89 | 1015.5 |
| 20260905115027 | 70 | 0 | 0.0 | 1.0 | 0.00 | 0.19 | 0.03 | 89 | 1013.4 |
| 20260905114553 | 70 | 0 | 0.0 | 2.0 | 0.00 | 0.19 | 0.03 | 89 | 1013.5 |
| 20260905114226 | 71 | 190 | 0.0 | 1.0 | 0.00 | 0.19 | 0.03 | 89 | 1015.4 |
| 20260905114024 | 70 | 0 | 0.0 | 3.0 | 0.00 | 0.19 | 0.03 | 89 | 1013.3 |
| 20260905113525 | 69 | 190 | 1.0 | 3.0 | 0.00 | 0.19 | 0.03 | 89 | 1013.1 |
| 20260905113052 | 69 | 0 | 0.0 | 0.0 | 0.00 | 0.19 | 0.03 | 89 | 1013.1 |
| 20260905112527 | 69 | 0 | 0.0 | 0.0 | 0.00 | 0.19 | 0.03 | 89 | 1013.1 |
| 20260905112125 | 69 | 273 | 0.0 | 0.0 | 0.00 | 0.19 | 0.03 | 89 | 1015.0 |
| 20260905112025 | 69 | 0 | 0.0 | 0.0 | 0.00 | 0.19 | 0.03 | 89 | 1013.1 |
| 20260905111601 | 69 | 0 | 0.0 | 0.0 | 0.00 | 0.19 | 0.03 | 89 | 1013.0 |
| 20260905111103 | 69 | 273 | 0.0 | 0.0 | 0.00 | 0.19 | 0.03 | 89 | 1015.0 |
| 20260905111025 | 69 | 0 | 0.0 | 0.0 | 0.00 | 0.19 | 0.03 | 89 | 1013.0 |
| 20260905110527 | 69 | 0 | 0.0 | 0.0 | 0.00 | 0.19 | 0.03 | 89 | 1013.0 |
| 20260905110058 | 68 | 0 | 0.0 | 0.0 | 0.00 | 0.19 | 0.03 | 88 | 1013.0 |
| 20260905105525 | 69 | 0 | 0.0 | 0.0 | 0.00 | 0.19 | 0.03 | 89 | 1013.0 |
| 20260905105023 | 69 | 0 | 0.0 | 0.0 | 0.00 | 0.19 | 0.03 | 88 | 1012.9 |
| 20260905104921 | 69 | 273 | 0.0 | 0.0 | 0.00 | 0.19 | 0.03 | 88 | 1014.9 |
| 20260905104550 | 69 | 0 | 0.0 | 0.0 | 0.00 | 0.19 | 0.03 | 88 | 1012.8 |
| 20260905104024 | 69 | 0 | 0.0 | 0.0 | 0.00 | 0.19 | 0.03 | 88 | 1012.8 |
| 20260905103847 | 70 | 273 | 0.0 | 0.0 | 0.00 | 0.19 | 0.03 | 88 | 1014.8 |
| 20260905103524 | 69 | 0 | 0.0 | 0.0 | 0.00 | 0.19 | 0.03 | 88 | 1012.8 |
| 20260905103053 | 69 | 0 | 0.0 | 0.0 | 0.00 | 0.19 | 0.03 | 89 | 1012.7 |
| 20260905102526 | 69 | 0 | 0.0 | 0.0 | 0.00 | 0.19 | 0.03 | 88 | 1012.7 |
| 20260905102024 | 69 | 0 | 0.0 | 0.0 | 0.00 | 0.19 | 0.03 | 88 | 1012.8 |
| 20260905101722 | 70 | 273 | 0.0 | 0.0 | 0.00 | 0.19 | 0.03 | 88 | 1014.7 |
| 20260905101548 | 69 | 0 | 0.0 | 0.0 | 0.00 | 0.19 | 0.03 | 89 | 1012.7 |
| 20260905101024 | 69 | 0 | 0.0 | 0.0 | 0.00 | 0.19 | 0.03 | 89 | 1012.6 |
| 20260905100726 | 70 | 273 | 0.0 | 0.0 | 0.00 | 0.19 | 0.03 | 89 | 1014.6 |
| 20260905100523 | 69 | 0 | 0.0 | 0.0 | 0.00 | 0.19 | 0.03 | 89 | 1012.6 |
| 20260905100053 | 69 | 0 | 0.0 | 0.0 | 0.00 | 0.19 | 0.03 | 88 | 1012.6 |
| 20260905095654 | 70 | 273 | 0.0 | 0.0 | 0.00 | 0.19 | 0.03 | 88 | 1014.6 |
| 20260905095524 | 69 | 0 | 0.0 | 0.0 | 0.00 | 0.19 | 0.03 | 88 | 1012.6 |
| 20260905095025 | 70 | 0 | 0.0 | 0.0 | 0.00 | 0.19 | 0.03 | 88 | 1012.5 |
| 20260905094632 | 70 | 273 | 0.0 | 0.0 | 0.00 | 0.19 | 0.03 | 88 | 1014.7 |
| 20260905094549 | 70 | 0 | 0.0 | 0.0 | 0.00 | 0.19 | 0.03 | 88 | 1012.6 |
| 20260905094024 | 70 | 0 | 0.0 | 0.0 | 0.00 | 0.19 | 0.03 | 88 | 1012.7 |
| 20260905093618 | 70 | 273 | 0.0 | 0.0 | 0.00 | 0.19 | 0.03 | 88 | 1014.6 |
| 20260905093529 | 70 | 0 | 0.0 | 0.0 | 0.00 | 0.19 | 0.03 | 88 | 1012.6 |
| 20260905093046 | 70 | 0 | 0.0 | 0.0 | 0.00 | 0.19 | 0.03 | 88 | 1012.6 |
| 20260905092524 | 70 | 0 | 0.0 | 0.0 | 0.00 | 0.19 | 0.03 | 88 | 1012.6 |
| 20260905092023 | 70 | 0 | 0.0 | 1.0 | 0.00 | 0.19 | 0.03 | 88 | 1012.7 |
| 20260905091612 | 70 | 0 | 0.0 | 1.0 | 0.00 | 0.19 | 0.03 | 88 | 1012.7 |
| 20260905091549 | 71 | 273 | 0.0 | 0.0 | 0.00 | 0.19 | 0.03 | 88 | 1014.7 |
| 20260905091026 | 70 | 0 | 0.0 | 1.0 | 0.00 | 0.19 | 0.03 | 88 | 1012.8 |
| 20260905090532 | 71 | 273 | 0.0 | 0.0 | 0.00 | 0.19 | 0.03 | 88 | 1014.8 |
| 20260905090525 | 70 | 0 | 0.0 | 1.0 | 0.00 | 0.19 | 0.03 | 88 | 1012.8 |
| 20260905090106 | 70 | 0 | 0.0 | 1.0 | 0.00 | 0.19 | 0.03 | 88 | 1012.8 |
| 20260905085525 | 70 | 0 | 0.0 | 1.0 | 0.00 | 0.19 | 0.03 | 88 | 1012.8 |
| 20260905085026 | 70 | 0 | 0.0 | 1.0 | 0.00 | 0.19 | 0.03 | 88 | 1012.7 |
| 20260905084554 | 70 | 0 | 0.0 | 1.0 | 0.00 | 0.19 | 0.03 | 88 | 1012.8 |
| 20260905084447 | 71 | 273 | 0.0 | 0.0 | 0.00 | 0.19 | 0.03 | 88 | 1014.8 |
| 20260905084025 | 70 | 0 | 0.0 | 1.0 | 0.00 | 0.19 | 0.03 | 88 | 1012.9 |
| 20260905083526 | 70 | 0 | 0.0 | 1.0 | 0.00 | 0.19 | 0.03 | 88 | 1012.9 |
| 20260905083459 | 71 | 273 | 0.0 | 0.0 | 0.00 | 0.19 | 0.03 | 88 | 1015.0 |
| 20260905083045 | 71 | 0 | 0.0 | 2.0 | 0.00 | 0.19 | 0.03 | 88 | 1012.9 |
| 20260905082523 | 70 | 0 | 0.0 | 2.0 | 0.00 | 0.19 | 0.03 | 88 | 1013.0 |
| 20260905082519 | 71 | 273 | 0.0 | 0.0 | 0.00 | 0.19 | 0.03 | 88 | 1015.0 |
| 20260905082024 | 71 | 273 | 1.0 | 2.0 | 0.00 | 0.19 | 0.03 | 88 | 1013.0 |
| 20260905081553 | 71 | 273 | 0.0 | 1.0 | 0.00 | 0.19 | 0.03 | 88 | 1013.0 |
| 20260905081537 | 71 | 273 | 0.0 | 0.0 | 0.00 | 0.19 | 0.03 | 88 | 1015.0 |
| 20260905081026 | 71 | 0 | 0.0 | 0.0 | 0.00 | 0.19 | 0.03 | 88 | 1013.1 |
| 20260905080537 | 71 | 273 | 0.0 | 0.0 | 0.00 | 0.19 | 0.03 | 88 | 1015.2 |
| 20260905080523 | 71 | 0 | 0.0 | 0.0 | 0.00 | 0.19 | 0.03 | 88 | 1013.1 |
| 20260905080055 | 71 | 0 | 0.0 | 0.0 | 0.00 | 0.19 | 0.03 | 88 | 1013.2 |
| 20260905075525 | 71 | 0 | 0.0 | 1.0 | 0.00 | 0.19 | 0.03 | 88 | 1013.3 |
| 20260905075520 | 72 | 273 | 0.0 | 0.0 | 0.00 | 0.19 | 0.03 | 88 | 1015.3 |
| 20260905075024 | 71 | 0 | 0.0 | 1.0 | 0.00 | 0.19 | 0.03 | 88 | 1013.3 |
| 20260905074547 | 71 | 273 | 0.0 | 2.0 | 0.00 | 0.19 | 0.03 | 88 | 1013.4 |
| 20260905074536 | 72 | 273 | 0.0 | 0.0 | 0.00 | 0.19 | 0.03 | 88 | 1015.4 |
| 20260905074026 | 71 | 0 | 0.0 | 2.0 | 0.00 | 0.19 | 0.03 | 88 | 1013.4 |
| 20260905073523 | 72 | 300 | 0.0 | 2.0 | 0.01 | 0.19 | 0.03 | 88 | 1013.4 |
| 20260905073513 | 72 | 341 | 0.0 | 0.0 | 0.00 | 0.19 | 0.03 | 88 | 1015.5 |
| 20260905073059 | 72 | 0 | 0.0 | 2.0 | 0.01 | 0.19 | 0.03 | 88 | 1013.5 |
| 20260905072524 | 72 | 0 | 0.0 | 2.0 | 0.02 | 0.19 | 0.03 | 88 | 1013.4 |
| 20260905072522 | 72 | 13 | 0.0 | 0.0 | 0.00 | 0.19 | 0.03 | 88 | 1015.4 |
| 20260905072023 | 72 | 0 | 0.0 | 2.0 | 0.03 | 0.19 | 0.03 | 88 | 1013.3 |
| 20260905071552 | 72 | 13 | 0.0 | 2.0 | 0.03 | 0.19 | 0.03 | 88 | 1013.3 |
| 20260905071029 | 72 | 0 | 0.0 | 2.0 | 0.03 | 0.19 | 0.03 | 88 | 1013.2 |
| 20260905070524 | 72 | 13 | 1.0 | 3.0 | 0.03 | 0.19 | 0.03 | 88 | 1013.2 |
| 20260905070344 | 72 | 353 | 1.0 | 2.0 | 0.00 | 0.19 | 0.03 | 88 | 1015.2 |
| 20260905070048 | 72 | 347 | 1.0 | 4.0 | 0.03 | 0.19 | 0.03 | 88 | 1013.2 |
| 20260905065525 | 72 | 56 | 1.0 | 4.0 | 0.03 | 0.19 | 0.03 | 88 | 1013.3 |
| 20260905065339 | 72 | 90 | 1.0 | 10.0 | 0.04 | 0.19 | 0.03 | 88 | 1015.3 |
| 20260905065024 | 72 | 170 | 1.0 | 11.0 | 0.03 | 0.19 | 0.03 | 88 | 1013.3 |
| 20260905064546 | 72 | 139 | 3.0 | 11.0 | 0.03 | 0.19 | 0.03 | 88 | 1013.5 |
| 20260905064357 | 72 | 137 | 3.0 | 10.0 | 0.06 | 0.19 | 0.03 | 88 | 1015.8 |
| 20260905064025 | 72 | 238 | 4.0 | 9.0 | 0.03 | 0.19 | 0.03 | 88 | 1014.3 |
| 20260905063523 | 73 | 239 | 2.0 | 6.0 | 0.02 | 0.18 | 0.02 | 88 | 1014.5 |
| 20260905063413 | 73 | 210 | 0.0 | 2.0 | 0.08 | 0.18 | 0.02 | 88 | 1016.5 |
| 20260905063041 | 73 | 0 | 0.0 | 3.0 | 0.02 | 0.18 | 0.02 | 88 | 1014.4 |
| 20260905062524 | 73 | 60 | 0.0 | 3.0 | 0.01 | 0.17 | 0.01 | 88 | 1014.4 |
| 20260905062350 | 73 | 5 | 1.0 | 3.0 | 0.01 | 0.16 | 0.01 | 88 | 1016.6 |
| 20260905062024 | 73 | 129 | 1.0 | 3.0 | 0.00 | 0.16 | 0.00 | 88 | 1014.4 |
| 20260905061618 | 73 | 139 | 1.0 | 3.0 | 0.00 | 0.16 | 0.00 | 88 | 1014.7 |
| 20260905061414 | 73 | 262 | 0.0 | 2.0 | 0.00 | 0.16 | 0.00 | 88 | 1016.7 |
| 20260905061025 | 73 | 0 | 0.0 | 2.0 | 0.00 | 0.16 | 0.00 | 88 | 1014.7 |
| 20260905060528 | 72 | 0 | 0.0 | 4.0 | 0.00 | 0.16 | 0.00 | 88 | 1014.9 |
| 20260905060353 | 73 | 320 | 0.0 | 0.0 | 0.00 | 0.16 | 0.00 | 88 | 1017.0 |
| 20260905060101 | 72 | 0 | 1.0 | 4.0 | 0.00 | 0.16 | 0.00 | 88 | 1015.1 |
| 20260905055527 | 72 | 129 | 2.0 | 4.0 | 0.00 | 0.16 | 0.00 | 88 | 1014.9 |
| 20260905055321 | 73 | 145 | 1.0 | 2.0 | 0.00 | 0.16 | 0.00 | 88 | 1016.8 |
| 20260905055027 | 72 | 151 | 1.0 | 3.0 | 0.00 | 0.16 | 0.00 | 88 | 1014.9 |
| 20260905054546 | 73 | 278 | 1.0 | 3.0 | 0.00 | 0.16 | 0.00 | 88 | 1015.2 |
| 20260905054301 | 73 | 278 | 0.0 | 1.0 | 0.00 | 0.16 | 0.00 | 88 | 1017.0 |
| 20260905054024 | 72 | 0 | 0.0 | 1.0 | 0.00 | 0.16 | 0.00 | 88 | 1014.9 |
| 20260905053524 | 72 | 0 | 0.0 | 2.0 | 0.00 | 0.16 | 0.00 | 88 | 1015.1 |
| 20260905053250 | 73 | 133 | 0.0 | 0.0 | 0.00 | 0.16 | 0.00 | 88 | 1017.2 |
| 20260905053046 | 72 | 0 | 0.0 | 2.0 | 0.00 | 0.16 | 0.00 | 88 | 1015.3 |
| 20260905052527 | 72 | 0 | 1.0 | 2.0 | 0.00 | 0.16 | 0.00 | 88 | 1015.3 |
| 20260905052257 | 73 | 133 | 0.0 | 1.0 | 0.00 | 0.16 | 0.00 | 88 | 1017.3 |
| 20260905052025 | 72 | 133 | 1.0 | 2.0 | 0.00 | 0.16 | 0.00 | 88 | 1015.4 |
| 20260905051542 | 72 | 0 | 0.0 | 1.0 | 0.00 | 0.16 | 0.00 | 88 | 1015.5 |
| 20260905051240 | 73 | 133 | 0.0 | 0.0 | 0.00 | 0.16 | 0.00 | 88 | 1017.5 |
| 20260905051024 | 72 | 133 | 0.0 | 2.0 | 0.00 | 0.16 | 0.00 | 88 | 1015.5 |
| 20260905050524 | 72 | 0 | 0.0 | 2.0 | 0.00 | 0.16 | 0.00 | 88 | 1015.4 |
| 20260905050048 | 72 | 133 | 0.0 | 2.0 | 0.00 | 0.16 | 0.00 | 88 | 1015.3 |
| 20260905045528 | 72 | 0 | 0.0 | 3.0 | 0.00 | 0.16 | 0.00 | 88 | 1015.5 |
| 20260905045121 | 73 | 133 | 0.0 | 2.0 | 0.00 | 0.16 | 0.00 | 88 | 1017.6 |
| 20260905045024 | 72 | 0 | 0.0 | 3.0 | 0.00 | 0.16 | 0.00 | 88 | 1015.5 |
| 20260905044546 | 72 | 212 | 0.0 | 2.0 | 0.00 | 0.16 | 0.00 | 88 | 1015.6 |
| 20260905044117 | 73 | 266 | 0.0 | 1.0 | 0.00 | 0.16 | 0.00 | 88 | 1017.8 |
| 20260905044023 | 73 | 266 | 0.0 | 2.0 | 0.00 | 0.16 | 0.00 | 88 | 1015.8 |
| 20260905043523 | 73 | 0 | 1.0 | 2.0 | 0.00 | 0.16 | 0.00 | 88 | 1015.8 |
| 20260905043101 | 73 | 266 | 0.0 | 0.0 | 0.00 | 0.16 | 0.00 | 88 | 1017.9 |
| 20260905043043 | 73 | 0 | 0.0 | 2.0 | 0.00 | 0.16 | 0.00 | 88 | 1015.9 |
| 20260905042525 | 73 | 0 | 0.0 | 1.0 | 0.00 | 0.16 | 0.00 | 88 | 1015.9 |
| 20260905042124 | 73 | 266 | 0.0 | 0.0 | 0.00 | 0.16 | 0.00 | 88 | 1018.0 |
| 20260905042024 | 73 | 266 | 0.0 | 1.0 | 0.00 | 0.16 | 0.00 | 88 | 1016.0 |
| 20260905041559 | 73 | 0 | 0.0 | 1.0 | 0.00 | 0.16 | 0.00 | 88 | 1016.0 |
| 20260905041049 | 73 | 266 | 0.0 | 0.0 | 0.00 | 0.16 | 0.00 | 88 | 1018.0 |
| 20260905041027 | 73 | 0 | 0.0 | 3.0 | 0.00 | 0.16 | 0.00 | 88 | 1015.9 |
| 20260905040524 | 73 | 0 | 0.0 | 4.0 | 0.00 | 0.16 | 0.00 | 88 | 1015.9 |
| 20260905040052 | 73 | 161 | 2.0 | 4.0 | 0.00 | 0.16 | 0.00 | 88 | 1015.9 |
| 20260905040048 | 73 | 156 | 0.0 | 2.0 | 0.00 | 0.16 | 0.00 | 88 | 1017.9 |
| 20260905035524 | 73 | 0 | 0.0 | 0.0 | 0.00 | 0.16 | 0.16 | 88 | 1015.6 |
| 20260905035028 | 73 | 0 | 0.0 | 0.0 | 0.01 | 0.16 | 0.16 | 88 | 1015.6 |
| 20260905034554 | 72 | 0 | 0.0 | 0.0 | 0.01 | 0.16 | 0.16 | 88 | 1015.4 |
| 20260905034022 | 72 | 0 | 0.0 | 0.0 | 0.01 | 0.16 | 0.16 | 88 | 1015.2 |
| 20260905033925 | 73 | 124 | 0.0 | 0.0 | 0.00 | 0.16 | 0.16 | 88 | 1017.1 |
| 20260905033523 | 73 | 0 | 0.0 | 0.0 | 0.01 | 0.16 | 0.16 | 88 | 1015.2 |
| 20260905033041 | 73 | 0 | 0.0 | 0.0 | 0.01 | 0.16 | 0.16 | 88 | 1015.2 |
| 20260905032936 | 73 | 124 | 0.0 | 0.0 | 0.00 | 0.16 | 0.16 | 88 | 1017.1 |
| 20260905032524 | 73 | 0 | 0.0 | 0.0 | 0.01 | 0.16 | 0.16 | 88 | 1015.1 |
| 20260905032024 | 73 | 0 | 0.0 | 0.0 | 0.01 | 0.16 | 0.16 | 88 | 1014.9 |
| 20260905031917 | 73 | 124 | 0.0 | 0.0 | 0.00 | 0.16 | 0.16 | 88 | 1017.0 |
| 20260905031553 | 73 | 0 | 0.0 | 0.0 | 0.01 | 0.16 | 0.16 | 88 | 1014.9 |
| 20260905031025 | 73 | 0 | 0.0 | 0.0 | 0.01 | 0.16 | 0.16 | 88 | 1014.8 |
| 20260905030938 | 73 | 124 | 0.0 | 0.0 | 0.00 | 0.16 | 0.16 | 88 | 1016.9 |
| 20260905030525 | 73 | 0 | 0.0 | 0.0 | 0.01 | 0.16 | 0.16 | 87 | 1015.0 |
| 20260905030050 | 73 | 0 | 0.0 | 0.0 | 0.01 | 0.16 | 0.16 | 87 | 1015.0 |
| 20260905025904 | 74 | 124 | 0.0 | 0.0 | 0.01 | 0.16 | 0.16 | 87 | 1016.9 |
| 20260905025524 | 73 | 0 | 0.0 | 1.0 | 0.01 | 0.16 | 0.16 | 87 | 1014.8 |
| 20260905025026 | 73 | 0 | 0.0 | 1.0 | 0.00 | 0.15 | 0.15 | 87 | 1014.9 |
| 20260905024904 | 74 | 124 | 0.0 | 0.0 | 0.00 | 0.14 | 0.15 | 87 | 1016.7 |
| 20260905024541 | 73 | 0 | 0.0 | 1.0 | 0.00 | 0.15 | 0.15 | 87 | 1014.6 |
| 20260905024025 | 73 | 0 | 0.0 | 1.0 | 0.00 | 0.15 | 0.15 | 87 | 1014.4 |
| 20260905023841 | 74 | 124 | 0.0 | 0.0 | 0.00 | 0.14 | 0.15 | 87 | 1016.5 |
| 20260905023525 | 73 | 0 | 0.0 | 2.0 | 0.00 | 0.15 | 0.15 | 87 | 1014.6 |
| 20260905023049 | 73 | 0 | 0.0 | 2.0 | 0.00 | 0.15 | 0.15 | 87 | 1014.6 |
| 20260905022853 | 74 | 124 | 0.0 | 1.0 | 0.00 | 0.14 | 0.15 | 87 | 1016.7 |
| 20260905022527 | 73 | 124 | 0.0 | 2.0 | 0.00 | 0.15 | 0.15 | 87 | 1014.9 |
| 20260905022025 | 73 | 0 | 0.0 | 1.0 | 0.00 | 0.15 | 0.15 | 87 | 1014.9 |
| 20260905021552 | 73 | 124 | 0.0 | 1.0 | 0.00 | 0.15 | 0.15 | 87 | 1014.9 |
| 20260905021028 | 73 | 0 | 0.0 | 2.0 | 0.00 | 0.15 | 0.15 | 87 | 1015.0 |
| 20260905020748 | 74 | 124 | 0.0 | 0.0 | 0.00 | 0.14 | 0.15 | 87 | 1016.9 |
| 20260905020528 | 73 | 0 | 0.0 | 2.0 | 0.00 | 0.15 | 0.15 | 87 | 1014.9 |
| 20260905020046 | 73 | 124 | 1.0 | 2.0 | 0.00 | 0.15 | 0.15 | 87 | 1014.8 |
| 20260905015759 | 74 | 178 | 0.0 | 1.0 | 0.00 | 0.14 | 0.15 | 87 | 1016.6 |
| 20260905015524 | 74 | 0 | 0.0 | 0.0 | 0.00 | 0.15 | 0.15 | 87 | 1014.6 |
| 20260905015024 | 74 | 0 | 0.0 | 1.0 | 0.00 | 0.15 | 0.15 | 87 | 1014.7 |
| 20260905014818 | 74 | 178 | 0.0 | 0.0 | 0.00 | 0.14 | 0.15 | 87 | 1016.6 |
| 20260905014543 | 74 | 0 | 0.0 | 1.0 | 0.00 | 0.15 | 0.15 | 87 | 1014.4 |
| 20260905014024 | 74 | 0 | 0.0 | 1.0 | 0.00 | 0.15 | 0.15 | 87 | 1014.4 |
| 20260905013748 | 74 | 178 | 0.0 | 0.0 | 0.00 | 0.14 | 0.15 | 87 | 1016.3 |
| 20260905013524 | 74 | 0 | 0.0 | 1.0 | 0.00 | 0.15 | 0.15 | 87 | 1014.2 |
| 20260905013052 | 74 | 0 | 0.0 | 1.0 | 0.00 | 0.15 | 0.15 | 87 | 1014.0 |
| 20260905012724 | 74 | 178 | 0.0 | 0.0 | 0.00 | 0.14 | 0.15 | 87 | 1016.1 |
| 20260905012525 | 74 | 0 | 0.0 | 1.0 | 0.00 | 0.15 | 0.15 | 87 | 1014.1 |
| 20260905012025 | 74 | 178 | 0.0 | 1.0 | 0.00 | 0.15 | 0.15 | 87 | 1014.1 |
| 20260905011701 | 75 | 178 | 0.0 | 0.0 | 0.00 | 0.14 | 0.15 | 87 | 1016.1 |
| 20260905011551 | 74 | 0 | 0.0 | 2.0 | 0.00 | 0.15 | 0.15 | 87 | 1014.1 |
| 20260905011024 | 74 | 178 | 0.0 | 2.0 | 0.00 | 0.15 | 0.15 | 87 | 1014.3 |
| 20260905010628 | 75 | 178 | 0.0 | 1.0 | 0.00 | 0.14 | 0.15 | 87 | 1016.2 |
| 20260905010524 | 74 | 178 | 1.0 | 2.0 | 0.00 | 0.15 | 0.15 | 87 | 1014.2 |
| 20260905010045 | 74 | 0 | 0.0 | 1.0 | 0.00 | 0.15 | 0.15 | 87 | 1014.2 |
| 20260905005635 | 75 | 178 | 0.0 | 0.0 | 0.00 | 0.14 | 0.15 | 87 | 1016.2 |
| 20260905005523 | 74 | 0 | 0.0 | 1.0 | 0.01 | 0.15 | 0.15 | 87 | 1014.2 |
| 20260905005023 | 74 | 0 | 0.0 | 1.0 | 0.08 | 0.15 | 0.15 | 87 | 1014.1 |
| 20260905004613 | 75 | 178 | 0.0 | 1.0 | 0.00 | 0.14 | 0.15 | 87 | 1016.2 |
| 20260905004548 | 74 | 178 | 0.0 | 2.0 | 0.14 | 0.15 | 0.15 | 87 | 1014.2 |
| 20260905004023 | 75 | 0 | 0.0 | 2.0 | 0.15 | 0.15 | 0.15 | 87 | 1014.1 |
| 20260905003628 | 75 | 178 | 0.0 | 1.0 | 0.00 | 0.14 | 0.15 | 87 | 1016.1 |
| 20260905003524 | 75 | 178 | 1.0 | 2.0 | 0.15 | 0.15 | 0.15 | 87 | 1014.1 |
| 20260905003049 | 75 | 0 | 0.0 | 2.0 | 0.15 | 0.15 | 0.15 | 86 | 1014.3 |
| 20260905002619 | 75 | 178 | 0.0 | 0.0 | 0.00 | 0.14 | 0.15 | 86 | 1016.5 |
| 20260905002524 | 75 | 178 | 0.0 | 2.0 | 0.15 | 0.15 | 0.15 | 86 | 1014.4 |
| 20260905002025 | 75 | 0 | 0.0 | 3.0 | 0.15 | 0.15 | 0.15 | 86 | 1014.4 |
| 20260905001555 | 75 | 0 | 0.0 | 4.0 | 0.15 | 0.15 | 0.15 | 86 | 1014.5 |
| 20260905001025 | 75 | 170 | 2.0 | 4.0 | 0.15 | 0.15 | 0.15 | 86 | 1014.7 |
| 20260905000524 | 76 | 241 | 3.0 | 4.0 | 0.15 | 0.15 | 0.15 | 85 | 1015.0 |
| 20260905000451 | 76 | 244 | 1.0 | 3.0 | 0.06 | 0.14 | 0.15 | 85 | 1017.0 |
| 20260905000042 | 76 | 318 | 2.0 | 4.0 | 0.15 | 0.15 | 0.15 | 84 | 1015.0 |
| 20260904235525 | 77 | 143 | 1.0 | 4.0 | 0.14 | 0.14 | 0.14 | 82 | 1015.2 |
| 20260904235456 | 78 | 151 | 1.0 | 3.0 | 1.29 | 0.09 | 0.13 | 82 | 1017.2 |
| 20260904235026 | 79 | 183 | 1.0 | 3.0 | 0.06 | 0.06 | 0.06 | 80 | 1015.5 |
| 20260904234542 | 80 | 243 | 1.0 | 6.0 | 0.00 | 0.00 | 0.00 | 76 | 1015.8 |
| 20260904234456 | 80 | 224 | 1.0 | 6.0 | 0.00 | 0.00 | 0.00 | 76 | 1017.7 |
| 20260904234024 | 80 | 261 | 0.0 | 6.0 | 0.00 | 0.00 | 0.00 | 75 | 1015.6 |
| 20260904233524 | 80 | 47 | 2.0 | 8.0 | 0.00 | 0.00 | 0.00 | 74 | 1015.6 |
| 20260904233511 | 80 | 53 | 2.0 | 6.0 | 0.00 | 0.00 | 0.00 | 74 | 1017.5 |
| 20260904233111 | 80 | 166 | 2.0 | 8.0 | 0.00 | 0.00 | 0.00 | 74 | 1015.5 |
| 20260904232524 | 80 | 146 | 3.0 | 7.0 | 0.00 | 0.00 | 0.00 | 73 | 1015.5 |
| 20260904232517 | 81 | 155 | 3.0 | 7.0 | 0.00 | 0.00 | 0.00 | 73 | 1017.5 |
| 20260904232026 | 81 | 90 | 4.0 | 8.0 | 0.00 | 0.00 | 0.00 | 71 | 1015.2 |
| 20260904231554 | 81 | 75 | 4.0 | 9.0 | 0.00 | 0.00 | 0.00 | 70 | 1015.4 |
| 20260904231513 | 82 | 80 | 3.0 | 9.0 | 0.00 | 0.00 | 0.00 | 70 | 1017.4 |
| 20260904231023 | 82 | 126 | 4.0 | 9.0 | 0.00 | 0.00 | 0.00 | 69 | 1015.2 |
| 20260904230524 | 82 | 75 | 2.0 | 11.0 | 0.00 | 0.00 | 0.00 | 68 | 1015.4 |
| 20260904230045 | 83 | 131 | 5.0 | 11.0 | 0.00 | 0.00 | 0.00 | 67 | 1015.0 |
| 20260904225523 | 83 | 120 | 2.0 | 9.0 | 0.00 | 0.00 | 0.00 | 66 | 1014.8 |
| 20260904225408 | 84 | 169 | 3.0 | 8.0 | 0.00 | 0.00 | 0.00 | 65 | 1016.8 |
| 20260904225025 | 84 | 119 | 3.0 | 10.0 | 0.00 | 0.00 | 0.00 | 64 | 1014.8 |
| 20260904224557 | 85 | 167 | 2.0 | 11.0 | 0.00 | 0.00 | 0.00 | 64 | 1014.8 |
| 20260904224025 | 86 | 108 | 5.0 | 15.0 | 0.00 | 0.00 | 0.00 | 63 | 1014.8 |
| 20260904223524 | 87 | 116 | 7.0 | 15.0 | 0.00 | 0.00 | 0.00 | 61 | 1014.8 |
| 20260904223208 | 89 | 111 | 7.0 | 13.0 | 0.00 | 0.00 | 0.00 | 59 | 1016.8 |
| 20260904223101 | 89 | 102 | 7.0 | 17.0 | 0.00 | 0.00 | 0.00 | 58 | 1015.0 |
| 20260904222525 | 91 | 112 | 8.0 | 17.0 | 0.00 | 0.00 | 0.00 | 55 | 1014.7 |
| 20260904222209 | 93 | 112 | 1.0 | 8.0 | 0.00 | 0.00 | 0.00 | 53 | 1016.8 |
| 20260904222024 | 93 | 0 | 1.0 | 4.0 | 0.00 | 0.00 | 0.00 | 51 | 1014.5 |
| 20260904221550 | 94 | 0 | 1.0 | 10.0 | 0.00 | 0.00 | 0.00 | 52 | 1014.5 |
| 20260904221217 | 94 | 320 | 4.0 | 11.0 | 0.00 | 0.00 | 0.00 | 52 | 1016.4 |
| 20260904221024 | 94 | 130 | 5.0 | 12.0 | 0.00 | 0.00 | 0.00 | 51 | 1014.4 |
| 20260904220524 | 94 | 217 | 5.0 | 12.0 | 0.00 | 0.00 | 0.00 | 51 | 1014.1 |
| 20260904220229 | 95 | 247 | 4.0 | 14.0 | 0.00 | 0.00 | 0.00 | 51 | 1016.2 |
| 20260904220044 | 94 | 250 | 4.0 | 12.0 | 0.00 | 0.00 | 0.00 | 52 | 1014.2 |
| 20260904215524 | 95 | 1 | 3.0 | 15.0 | 0.00 | 0.00 | 0.00 | 54 | 1014.0 |
| 20260904215241 | 95 | 117 | 4.0 | 14.0 | 0.00 | 0.00 | 0.00 | 52 | 1016.0 |
| 20260904215024 | 95 | 290 | 5.0 | 15.0 | 0.00 | 0.00 | 0.00 | 52 | 1013.9 |
| 20260904214552 | 95 | 223 | 4.0 | 9.0 | 0.00 | 0.00 | 0.00 | 50 | 1013.7 |
| 20260904214212 | 95 | 262 | 1.0 | 7.0 | 0.00 | 0.00 | 0.00 | 51 | 1015.6 |
| 20260904214024 | 95 | 281 | 2.0 | 7.0 | 0.00 | 0.00 | 0.00 | 51 | 1013.6 |
| 20260904213529 | 95 | 240 | 1.0 | 5.0 | 0.00 | 0.00 | 0.00 | 51 | 1013.6 |
| 20260904213137 | 95 | 249 | 2.0 | 7.0 | 0.00 | 0.00 | 0.00 | 52 | 1015.6 |
| 20260904213048 | 94 | 262 | 2.0 | 8.0 | 0.00 | 0.00 | 0.00 | 52 | 1013.5 |
| 20260904212527 | 93 | 234 | 3.0 | 8.0 | 0.00 | 0.00 | 0.00 | 52 | 1013.4 |
| 20260904212143 | 94 | 174 | 1.0 | 6.0 | 0.00 | 0.00 | 0.00 | 52 | 1015.6 |
| 20260904212024 | 93 | 189 | 3.0 | 7.0 | 0.00 | 0.00 | 0.00 | 52 | 1013.6 |
| 20260904211549 | 94 | 170 | 2.0 | 7.0 | 0.00 | 0.00 | 0.00 | 52 | 1013.6 |
| 20260904211149 | 94 | 188 | 1.0 | 6.0 | 0.00 | 0.00 | 0.00 | 51 | 1015.7 |
| 20260904211026 | 94 | 174 | 3.0 | 7.0 | 0.00 | 0.00 | 0.00 | 51 | 1013.7 |
| 20260904210524 | 94 | 183 | 2.0 | 6.0 | 0.00 | 0.00 | 0.00 | 51 | 1013.7 |
| 20260904210140 | 95 | 234 | 2.0 | 6.0 | 0.00 | 0.00 | 0.00 | 50 | 1015.7 |
| 20260904210059 | 94 | 177 | 2.0 | 7.0 | 0.00 | 0.00 | 0.00 | 50 | 1013.7 |
| 20260904205528 | 94 | 208 | 2.0 | 8.0 | 0.00 | 0.00 | 0.00 | 49 | 1013.8 |
| 20260904205139 | 95 | 203 | 2.0 | 9.0 | 0.00 | 0.00 | 0.00 | 49 | 1015.7 |
| 20260904205025 | 95 | 175 | 3.0 | 10.0 | 0.00 | 0.00 | 0.00 | 49 | 1013.5 |
| 20260904204549 | 95 | 179 | 2.0 | 10.0 | 0.00 | 0.00 | 0.00 | 48 | 1013.4 |
| 20260904204149 | 96 | 195 | 4.0 | 9.0 | 0.00 | 0.00 | 0.00 | 46 | 1015.5 |
| 20260904204029 | 96 | 218 | 5.0 | 10.0 | 0.00 | 0.00 | 0.00 | 46 | 1013.5 |
| 20260904203525 | 97 | 209 | 6.0 | 10.0 | 0.00 | 0.00 | 0.00 | 45 | 1013.5 |
| 20260904203142 | 98 | 193 | 3.0 | 8.0 | 0.00 | 0.00 | 0.00 | 46 | 1015.4 |
| 20260904203102 | 98 | 266 | 3.0 | 9.0 | 0.00 | 0.00 | 0.00 | 45 | 1013.4 |
| 20260904202525 | 97 | 132 | 4.0 | 9.0 | 0.00 | 0.00 | 0.00 | 47 | 1013.4 |
| 20260904202129 | 98 | 194 | 4.0 | 8.0 | 0.00 | 0.00 | 0.00 | 46 | 1015.4 |
| 20260904202026 | 97 | 234 | 5.0 | 9.0 | 0.00 | 0.00 | 0.00 | 47 | 1013.3 |
| 20260904201551 | 98 | 181 | 4.0 | 9.0 | 0.00 | 0.00 | 0.00 | 46 | 1013.4 |
| 20260904201122 | 98 | 176 | 3.0 | 8.0 | 0.00 | 0.00 | 0.00 | 48 | 1015.6 |
| 20260904201024 | 98 | 191 | 2.0 | 9.0 | 0.00 | 0.00 | 0.00 | 47 | 1013.6 |
| 20260904200527 | 98 | 184 | 3.0 | 7.0 | 0.00 | 0.00 | 0.00 | 47 | 1013.6 |
| 20260904200115 | 99 | 159 | 2.0 | 8.0 | 0.00 | 0.00 | 0.00 | 46 | 1015.6 |
| 20260904200049 | 98 | 199 | 1.0 | 9.0 | 0.00 | 0.00 | 0.00 | 46 | 1013.7 |
| 20260904195526 | 98 | 259 | 4.0 | 9.0 | 0.00 | 0.00 | 0.00 | 46 | 1013.6 |
| 20260904195053 | 99 | 208 | 4.0 | 9.0 | 0.00 | 0.00 | 0.00 | 46 | 1015.7 |
| 20260904195024 | 98 | 233 | 4.0 | 9.0 | 0.00 | 0.00 | 0.00 | 47 | 1013.7 |
| 20260904194547 | 98 | 186 | 5.0 | 11.0 | 0.00 | 0.00 | 0.00 | 47 | 1013.9 |
| 20260904194045 | 98 | 186 | 4.0 | 9.0 | 0.00 | 0.00 | 0.00 | 48 | 1016.1 |
| 20260904194024 | 98 | 206 | 5.0 | 11.0 | 0.00 | 0.00 | 0.00 | 48 | 1014.0 |
| 20260904193523 | 96 | 235 | 5.0 | 11.0 | 0.00 | 0.00 | 0.00 | 49 | 1014.1 |
| 20260904193047 | 97 | 293 | 3.0 | 9.0 | 0.00 | 0.00 | 0.00 | 47 | 1014.2 |
| 20260904193037 | 97 | 270 | 3.0 | 8.0 | 0.00 | 0.00 | 0.00 | 47 | 1016.2 |
| 20260904192523 | 98 | 195 | 4.0 | 10.0 | 0.00 | 0.00 | 0.00 | 46 | 1014.2 |
| 20260904192034 | 99 | 185 | 4.0 | 8.0 | 0.00 | 0.00 | 0.00 | 48 | 1016.4 |
| 20260904192025 | 99 | 193 | 6.0 | 10.0 | 0.00 | 0.00 | 0.00 | 48 | 1014.4 |
| 20260904191554 | 99 | 233 | 5.0 | 10.0 | 0.00 | 0.00 | 0.00 | 47 | 1014.4 |
| 20260904191043 | 99 | 221 | 2.0 | 7.0 | 0.00 | 0.00 | 0.00 | 49 | 1016.7 |
| 20260904191024 | 98 | 255 | 2.0 | 8.0 | 0.00 | 0.00 | 0.00 | 51 | 1014.6 |
| 20260904190525 | 96 | 217 | 3.0 | 8.0 | 0.00 | 0.00 | 0.00 | 50 | 1014.7 |
| 20260904190104 | 97 | 136 | 4.0 | 10.0 | 0.00 | 0.00 | 0.00 | 48 | 1016.8 |
| 20260904190047 | 97 | 134 | 3.0 | 13.0 | 0.00 | 0.00 | 0.00 | 48 | 1014.7 |
| 20260904185526 | 98 | 181 | 3.0 | 13.0 | 0.00 | 0.00 | 0.00 | 47 | 1014.9 |
| 20260904185048 | 98 | 195 | 5.0 | 10.0 | 0.00 | 0.00 | 0.00 | 49 | 1016.9 |
| 20260904185023 | 98 | 174 | 6.0 | 13.0 | 0.00 | 0.00 | 0.00 | 49 | 1015.0 |
| 20260904184545 | 97 | 185 | 5.0 | 11.0 | 0.00 | 0.00 | 0.00 | 49 | 1015.0 |
| 20260904184025 | 98 | 187 | 5.0 | 11.0 | 0.00 | 0.00 | 0.00 | 47 | 1015.0 |
| 20260904183525 | 98 | 211 | 2.0 | 8.0 | 0.00 | 0.00 | 0.00 | 49 | 1015.2 |
| 20260904183053 | 97 | 141 | 3.0 | 8.0 | 0.00 | 0.00 | 0.00 | 49 | 1015.2 |
| 20260904182524 | 96 | 133 | 4.0 | 9.0 | 0.00 | 0.00 | 0.00 | 51 | 1015.2 |
| 20260904182027 | 97 | 175 | 3.0 | 11.0 | 0.00 | 0.00 | 0.00 | 49 | 1015.4 |
| 20260904181823 | 98 | 131 | 4.0 | 9.0 | 0.00 | 0.00 | 0.00 | 50 | 1017.5 |
| 20260904181547 | 97 | 220 | 6.0 | 11.0 | 0.00 | 0.00 | 0.00 | 49 | 1015.4 |
| 20260904181025 | 98 | 134 | 5.0 | 8.0 | 0.00 | 0.00 | 0.00 | 48 | 1015.5 |
| 20260904180838 | 98 | 158 | 3.0 | 8.0 | 0.00 | 0.00 | 0.00 | 50 | 1017.5 |
| 20260904180527 | 98 | 0 | 4.0 | 11.0 | 0.00 | 0.00 | 0.00 | 50 | 1015.5 |
| 20260904180042 | 98 | 72 | 5.0 | 11.0 | 0.00 | 0.00 | 0.00 | 50 | 1015.6 |
| 20260904175836 | 98 | 131 | 3.0 | 8.0 | 0.00 | 0.00 | 0.00 | 50 | 1017.7 |
| 20260904175530 | 97 | 163 | 2.0 | 10.0 | 0.00 | 0.00 | 0.00 | 49 | 1015.6 |
| 20260904175024 | 97 | 169 | 4.0 | 10.0 | 0.00 | 0.00 | 0.00 | 49 | 1015.8 |
| 20260904174815 | 98 | 199 | 3.0 | 8.0 | 0.00 | 0.00 | 0.00 | 50 | 1017.8 |
| 20260904174556 | 97 | 228 | 4.0 | 9.0 | 0.00 | 0.00 | 0.00 | 51 | 1015.8 |
| 20260904174025 | 96 | 61 | 3.0 | 8.0 | 0.00 | 0.00 | 0.00 | 51 | 1015.8 |
| 20260904173816 | 97 | 122 | 3.0 | 7.0 | 0.00 | 0.00 | 0.00 | 53 | 1017.9 |
| 20260904173524 | 97 | 91 | 2.0 | 9.0 | 0.00 | 0.00 | 0.00 | 50 | 1015.8 |
| 20260904173053 | 97 | 241 | 5.0 | 9.0 | 0.00 | 0.00 | 0.00 | 50 | 1015.9 |
| 20260904172829 | 98 | 238 | 4.0 | 9.0 | 0.00 | 0.00 | 0.00 | 51 | 1017.9 |
| 20260904172527 | 97 | 167 | 3.0 | 11.0 | 0.00 | 0.00 | 0.00 | 52 | 1015.9 |
| 20260904172028 | 97 | 229 | 6.0 | 11.0 | 0.00 | 0.00 | 0.00 | 52 | 1016.0 |
| 20260904171852 | 97 | 210 | 4.0 | 9.0 | 0.00 | 0.00 | 0.00 | 53 | 1017.9 |
| 20260904171542 | 96 | 203 | 4.0 | 9.0 | 0.00 | 0.00 | 0.00 | 53 | 1015.9 |
| 20260904171025 | 97 | 218 | 3.0 | 7.0 | 0.00 | 0.00 | 0.00 | 51 | 1015.9 |
| 20260904170913 | 98 | 255 | 2.0 | 6.0 | 0.00 | 0.00 | 0.00 | 52 | 1018.0 |
| 20260904170527 | 97 | 45 | 3.0 | 8.0 | 0.00 | 0.00 | 0.00 | 55 | 1016.1 |
| 20260904170053 | 97 | 242 | 4.0 | 8.0 | 0.00 | 0.00 | 0.00 | 50 | 1016.0 |
| 20260904165846 | 97 | 173 | 3.0 | 6.0 | 0.00 | 0.00 | 0.00 | 53 | 1018.1 |
| 20260904165525 | 96 | 141 | 4.0 | 8.0 | 0.00 | 0.00 | 0.00 | 53 | 1016.0 |
| 20260904165025 | 96 | 153 | 3.0 | 7.0 | 0.00 | 0.00 | 0.00 | 54 | 1016.1 |
| 20260904164845 | 96 | 172 | 2.0 | 7.0 | 0.00 | 0.00 | 0.00 | 53 | 1018.1 |
| 20260904164552 | 96 | 178 | 2.0 | 8.0 | 0.00 | 0.00 | 0.00 | 53 | 1016.1 |
| 20260904164024 | 96 | 223 | 3.0 | 8.0 | 0.00 | 0.00 | 0.00 | 53 | 1016.2 |
| 20260904163524 | 95 | 85 | 2.0 | 8.0 | 0.00 | 0.00 | 0.00 | 54 | 1016.3 |
| 20260904163051 | 95 | 151 | 3.0 | 7.0 | 0.00 | 0.00 | 0.00 | 55 | 1016.4 |
| 20260904162705 | 96 | 226 | 2.0 | 6.0 | 0.00 | 0.00 | 0.00 | 56 | 1018.5 |
| 20260904162528 | 95 | 108 | 3.0 | 7.0 | 0.00 | 0.00 | 0.00 | 56 | 1016.5 |
| 20260904162022 | 95 | 154 | 1.0 | 6.0 | 0.00 | 0.00 | 0.00 | 56 | 1016.5 |
| 20260904161634 | 95 | 216 | 2.0 | 7.0 | 0.00 | 0.00 | 0.00 | 57 | 1018.6 |
| 20260904161543 | 95 | 256 | 1.0 | 8.0 | 0.00 | 0.00 | 0.00 | 56 | 1016.7 |
| 20260904161023 | 94 | 154 | 2.0 | 8.0 | 0.00 | 0.00 | 0.00 | 58 | 1016.7 |
| 20260904160651 | 95 | 197 | 2.0 | 7.0 | 0.00 | 0.00 | 0.00 | 58 | 1018.8 |
| 20260904160527 | 94 | 149 | 2.0 | 8.0 | 0.00 | 0.00 | 0.00 | 58 | 1016.7 |
| 20260904160057 | 94 | 280 | 2.0 | 7.0 | 0.00 | 0.00 | 0.00 | 58 | 1016.7 |
| 20260904155710 | 94 | 217 | 3.0 | 6.0 | 0.00 | 0.00 | 0.00 | 58 | 1018.7 |
| 20260904155526 | 94 | 189 | 4.0 | 7.0 | 0.00 | 0.00 | 0.00 | 58 | 1016.7 |
| 20260904155024 | 94 | 197 | 2.0 | 7.0 | 0.00 | 0.00 | 0.00 | 60 | 1016.8 |
| 20260904154723 | 94 | 170 | 3.0 | 6.0 | 0.00 | 0.00 | 0.00 | 58 | 1018.8 |
| 20260904154552 | 93 | 104 | 4.0 | 7.0 | 0.00 | 0.00 | 0.00 | 58 | 1016.8 |
| 20260904154026 | 93 | 135 | 3.0 | 7.0 | 0.00 | 0.00 | 0.00 | 61 | 1016.8 |
| 20260904153722 | 93 | 164 | 2.0 | 6.0 | 0.00 | 0.00 | 0.00 | 59 | 1018.7 |
| 20260904153525 | 93 | 131 | 2.0 | 7.0 | 0.00 | 0.00 | 0.00 | 62 | 1016.8 |
| 20260904153048 | 92 | 154 | 2.0 | 8.0 | 0.00 | 0.00 | 0.00 | 60 | 1016.8 |
| 20260904152733 | 93 | 189 | 3.0 | 6.0 | 0.00 | 0.00 | 0.00 | 61 | 1018.9 |
| 20260904152524 | 92 | 212 | 3.0 | 8.0 | 0.00 | 0.00 | 0.00 | 62 | 1016.9 |
| 20260904152026 | 92 | 124 | 3.0 | 7.0 | 0.00 | 0.00 | 0.00 | 63 | 1016.9 |
| 20260904151712 | 92 | 235 | 3.0 | 7.0 | 0.00 | 0.00 | 0.00 | 65 | 1018.9 |
| 20260904151544 | 91 | 183 | 3.0 | 7.0 | 0.00 | 0.00 | 0.00 | 64 | 1017.0 |
| 20260904151024 | 91 | 221 | 3.0 | 8.0 | 0.00 | 0.00 | 0.00 | 64 | 1016.9 |